Time;durP1;ratioP1;P1;durP2;ratioP2;P2;SDS_P1;SDS_P2;PMS_P1;PMS_P2;Temp;Humidity;BMP_temperature;BMP_pressure;BME280_temperature;BME280_humidity;BME280_pressure;Samples;Min_cycle;Max_cycle;Signal;HPM_P1;HPM_P2
2022/07/06 00:01:31;;;;;;;;;;;19.60;96.10;;;;;;5032158;28;20350;-73
2022/07/06 00:03:56;;;;;;;;;;;19.60;96.10;;;;;;5032992;28;19956;-72
2022/07/06 00:06:22;;;;;;;;;;;19.60;96.40;;;;;;5032170;28;19912;-72
2022/07/06 00:08:48;;;;;;;;;;;19.60;96.40;;;;;;5032115;28;19916;-72
2022/07/06 00:11:14;;;;;;;;;;;19.70;96.30;;;;;;5032419;28;20067;-72
2022/07/06 00:13:39;;;;;;;;;;;19.70;96.30;;;;;;5032751;28;20474;-72
2022/07/06 00:16:05;;;;;;;;;;;19.70;96.40;;;;;;5032955;28;19905;-72
2022/07/06 00:18:30;;;;;;;;;;;19.70;96.30;;;;;;5032136;28;19967;-72
2022/07/06 00:20:56;;;;;;;;;;;19.70;96.30;;;;;;5032451;28;19912;-72
2022/07/06 00:23:22;;;;;;;;;;;19.70;96.30;;;;;;5032358;28;19967;-72
2022/07/06 00:25:48;;;;;;;;;;;19.80;96.20;;;;;;5032320;28;19915;-72
2022/07/06 00:28:13;;;;;;;;;;;19.80;96.20;;;;;;5032217;28;19971;-72
2022/07/06 00:30:39;;;;;;;;;;;19.90;96.10;;;;;;5032566;28;19909;-72
2022/07/06 00:33:04;;;;;;;;;;;19.90;96.10;;;;;;5032716;28;19909;-72
2022/07/06 00:35:30;;;;;;;;;;;19.90;95.90;;;;;;5031468;28;20751;-74
2022/07/06 00:37:55;;;;;;;;;;;19.90;95.60;;;;;;5032619;28;19991;-72
2022/07/06 00:40:21;;;;;;;;;;;20.00;95.80;;;;;;5031887;28;19996;-72
2022/07/06 00:42:47;;;;;;;;;;;20.00;95.90;;;;;;5032559;28;19909;-72
2022/07/06 00:45:14;;;;;;;;;;;19.90;96.10;;;;;;5032357;28;19912;-72
2022/07/06 00:47:40;;;;;;;;;;;19.90;96.50;;;;;;5032116;28;20281;-72
2022/07/06 00:50:22;;;;;;;;;;;19.80;96.90;;;;;;5033853;28;19974;-72
2022/07/06 00:52:55;;;;;;;;;;;19.80;97.60;;;;;;5036587;28;19909;-72
2022/07/06 00:55:25;;;;;;;;;;;19.80;98.40;;;;;;5036107;28;19928;-72
2022/07/06 00:57:51;;;;;;;;;;;19.70;99.00;;;;;;5036271;28;19951;-72
2022/07/06 01:00:19;;;;;;;;;;;19.70;99.80;;;;;;5035595;28;20305;-72
2022/07/06 01:02:45;;;;;;;;;;;19.70;99.90;;;;;;5035684;28;20424;-72
2022/07/06 01:05:11;;;;;;;;;;;19.60;99.90;;;;;;5035327;28;19905;-72
2022/07/06 01:07:37;;;;;;;;;;;19.60;99.90;;;;;;5034526;28;20368;-72
2022/07/06 01:10:04;;;;;;;;;;;19.60;99.90;;;;;;5035379;28;19905;-72
2022/07/06 01:12:30;;;;;;;;;;;19.60;99.90;;;;;;5034499;28;19913;-72
2022/07/06 01:14:56;;;;;;;;;;;19.60;99.90;;;;;;5035222;28;20269;-72
2022/07/06 01:17:21;;;;;;;;;;;19.60;99.90;;;;;;5034584;28;19909;-72
2022/07/06 01:19:47;;;;;;;;;;;19.60;99.90;;;;;;5034781;28;19909;-72
2022/07/06 01:22:13;;;;;;;;;;;19.70;99.90;;;;;;5035365;28;20349;-72
2022/07/06 01:24:38;;;;;;;;;;;19.70;99.90;;;;;;5034513;28;20281;-72
2022/07/06 01:27:04;;;;;;;;;;;19.70;99.90;;;;;;5034663;28;19924;-72
2022/07/06 01:29:31;;;;;;;;;;;19.70;99.90;;;;;;5016749;28;19915;-72
2022/07/06 01:31:56;;;;;;;;;;;19.70;99.90;;;;;;5034978;28;19905;-71
2022/07/06 01:34:22;;;;;;;;;;;19.70;99.90;;;;;;5034638;28;20376;-72
2022/07/06 01:36:47;;;;;;;;;;;19.80;99.90;;;;;;5017330;28;19916;-72
2022/07/06 01:39:13;;;;;;;;;;;19.70;99.90;;;;;;5034742;28;20345;-72
2022/07/06 01:41:38;;;;;;;;;;;19.80;99.90;;;;;;5034389;28;19909;-72
2022/07/06 01:44:04;;;;;;;;;;;19.80;99.90;;;;;;5034758;28;19912;-73
2022/07/06 01:46:30;;;;;;;;;;;19.80;99.90;;;;;;5034611;28;19931;-72
2022/07/06 01:48:56;;;;;;;;;;;19.80;99.90;;;;;;5034479;28;20012;-72
2022/07/06 01:51:22;;;;;;;;;;;19.80;99.90;;;;;;5034471;28;19916;-72
2022/07/06 01:53:48;;;;;;;;;;;19.80;99.90;;;;;;5034286;28;19909;-72
2022/07/06 01:56:14;;;;;;;;;;;19.90;99.90;;;;;;5034159;28;19928;-72
2022/07/06 01:58:39;;;;;;;;;;;19.90;99.90;;;;;;5033825;28;19906;-73
2022/07/06 02:01:08;;;;;;;;;;;19.90;99.90;;;;;;5033491;28;20354;-72
2022/07/06 02:03:34;;;;;;;;;;;19.90;99.90;;;;;;5033230;28;19905;-72
2022/07/06 02:06:00;;;;;;;;;;;20.00;99.90;;;;;;5034299;28;20271;-72
2022/07/06 02:08:25;;;;;;;;;;;20.00;99.90;;;;;;5034331;28;19912;-71
2022/07/06 02:10:51;;;;;;;;;;;20.00;99.90;;;;;;5034768;28;19909;-71
2022/07/06 02:13:16;;;;;;;;;;;20.10;99.90;;;;;;5034561;28;20368;-71
2022/07/06 02:15:42;;;;;;;;;;;20.10;99.90;;;;;;5034518;28;19912;-72
2022/07/06 02:18:08;;;;;;;;;;;20.10;99.90;;;;;;5034417;28;19916;-72
2022/07/06 02:20:33;;;;;;;;;;;20.10;99.90;;;;;;5033631;28;20357;-72
2022/07/06 02:22:59;;;;;;;;;;;20.10;99.90;;;;;;5034565;28;20257;-72
2022/07/06 02:25:24;;;;;;;;;;;20.10;99.90;;;;;;5033961;28;19967;-72
2022/07/06 02:27:50;;;;;;;;;;;20.10;99.90;;;;;;5034376;28;19924;-71
2022/07/06 02:30:15;;;;;;;;;;;20.10;99.90;;;;;;5034367;28;19912;-73
2022/07/06 02:32:41;;;;;;;;;;;20.20;99.90;;;;;;5033519;28;19905;-72
2022/07/06 02:35:06;;;;;;;;;;;20.20;99.90;;;;;;5034051;28;20051;-72
2022/07/06 02:37:32;;;;;;;;;;;20.20;99.90;;;;;;5033618;28;19909;-72
2022/07/06 02:39:57;;;;;;;;;;;20.20;99.90;;;;;;5034208;28;19909;-73
2022/07/06 02:42:23;;;;;;;;;;;20.20;99.90;;;;;;5033412;28;20001;-72
2022/07/06 02:44:48;;;;;;;;;;;20.20;99.90;;;;;;5033679;28;19912;-72
2022/07/06 02:47:14;;;;;;;;;;;20.20;99.90;;;;;;5033590;28;19913;-72
2022/07/06 02:49:39;;;;;;;;;;;20.30;99.90;;;;;;5033450;28;19908;-71
2022/07/06 02:52:05;;;;;;;;;;;20.30;99.90;;;;;;5033893;28;20264;-72
2022/07/06 02:54:30;;;;;;;;;;;20.30;99.90;;;;;;5033115;28;19956;-72
2022/07/06 02:56:56;;;;;;;;;;;20.20;99.90;;;;;;5033927;28;19905;-72
2022/07/06 02:59:21;;;;;;;;;;;20.20;99.90;;;;;;5033351;28;20319;-72
2022/07/06 03:01:47;;;;;;;;;;;20.20;99.90;;;;;;5033317;28;19905;-73
2022/07/06 03:04:12;;;;;;;;;;;20.20;99.90;;;;;;5033673;28;19905;-72
2022/07/06 03:06:38;;;;;;;;;;;20.20;99.90;;;;;;5032239;28;20012;-74
2022/07/06 03:09:03;;;;;;;;;;;20.20;99.80;;;;;;5032348;28;20308;-72
2022/07/06 03:11:29;;;;;;;;;;;20.20;99.70;;;;;;5032440;28;19964;-72
2022/07/06 03:13:54;;;;;;;;;;;20.20;99.40;;;;;;5032949;28;19905;-72
2022/07/06 03:16:20;;;;;;;;;;;20.20;99.30;;;;;;5033560;28;19927;-71
2022/07/06 03:18:45;;;;;;;;;;;20.20;99.30;;;;;;5032906;28;19905;-72
2022/07/06 03:21:11;;;;;;;;;;;20.20;99.10;;;;;;5033052;28;19999;-72
2022/07/06 03:23:36;;;;;;;;;;;20.10;99.00;;;;;;5029976;28;20357;-71
2022/07/06 03:26:02;;;;;;;;;;;20.10;98.70;;;;;;5033306;28;19906;-72
2022/07/06 03:28:27;;;;;;;;;;;20.20;98.50;;;;;;5032782;28;20428;-72
2022/07/06 03:30:53;;;;;;;;;;;20.10;98.50;;;;;;5032988;28;19991;-72
2022/07/06 03:33:18;;;;;;;;;;;20.10;98.20;;;;;;5032873;28;19905;-72
2022/07/06 03:35:44;;;;;;;;;;;20.10;97.90;;;;;;5032559;28;19909;-72
2022/07/06 03:38:09;;;;;;;;;;;20.10;97.60;;;;;;5033132;28;20371;-73
2022/07/06 03:40:35;;;;;;;;;;;20.10;97.70;;;;;;5032465;28;19909;-72
2022/07/06 03:43:00;;;;;;;;;;;20.10;97.70;;;;;;5032936;28;19951;-72
2022/07/06 03:45:26;;;;;;;;;;;20.10;97.70;;;;;;5032431;28;19912;-73
2022/07/06 03:47:51;;;;;;;;;;;20.10;97.90;;;;;;5032931;28;19913;-73
2022/07/06 03:50:17;;;;;;;;;;;20.10;98.00;;;;;;5032978;28;19905;-74
2022/07/06 03:52:42;;;;;;;;;;;20.00;98.20;;;;;;5032380;28;20560;-73
2022/07/06 03:55:09;;;;;;;;;;;20.00;98.10;;;;;;5032651;28;19909;-72
2022/07/06 03:57:35;;;;;;;;;;;20.00;98.00;;;;;;5032044;28;20337;-72
2022/07/06 04:00:01;;;;;;;;;;;20.00;97.90;;;;;;5032286;28;19912;-69
2022/07/06 04:02:26;;;;;;;;;;;20.00;97.80;;;;;;5031478;28;19905;-72
2022/07/06 04:04:52;;;;;;;;;;;20.00;97.80;;;;;;5032638;28;20051;-72
2022/07/06 04:07:18;;;;;;;;;;;20.00;97.80;;;;;;5032413;28;19917;-73
2022/07/06 04:09:43;;;;;;;;;;;20.00;97.60;;;;;;5031758;28;19988;-72
2022/07/06 04:12:09;;;;;;;;;;;20.00;97.60;;;;;;5032573;28;19921;-72
2022/07/06 04:14:34;;;;;;;;;;;20.10;97.80;;;;;;5031953;28;19952;-72
2022/07/06 04:17:51;;;;;;;;;;;20.10;97.90;;;;;;5032475;28;20000;-72
2022/07/06 04:19:45;;;;;;;;;;;20.20;97.90;;;;;;5031123;28;19912;-73
2022/07/06 04:22:11;;;;;;;;;;;20.20;97.50;;;;;;5032249;28;19909;-72
2022/07/06 04:24:36;;;;;;;;;;;20.30;97.10;;;;;;5032430;28;19936;-72
2022/07/06 04:27:02;;;;;;;;;;;20.30;96.80;;;;;;5036088;28;19917;-72
2022/07/06 04:29:28;;;;;;;;;;;20.40;96.30;;;;;;5035664;28;19952;-72
2022/07/06 04:31:53;;;;;;;;;;;20.50;96.30;;;;;;5035729;28;19905;-73
2022/07/06 04:34:19;;;;;;;;;;;20.60;95.90;;;;;;5036416;28;19905;-72
2022/07/06 04:36:44;;;;;;;;;;;20.70;95.70;;;;;;5036137;28;19992;-72
2022/07/06 04:39:09;;;;;;;;;;;20.80;95.40;;;;;;5036268;28;19909;-72
2022/07/06 04:41:35;;;;;;;;;;;20.90;94.70;;;;;;5017215;28;19912;-72
2022/07/06 04:44:00;;;;;;;;;;;21.10;94.00;;;;;;5035642;28;19916;-71
2022/07/06 04:46:26;;;;;;;;;;;21.20;93.30;;;;;;5035819;28;19905;-71
2022/07/06 04:48:51;;;;;;;;;;;21.30;92.90;;;;;;5018281;28;19909;-71
2022/07/06 04:51:17;;;;;;;;;;;21.40;92.70;;;;;;5036025;28;19967;-72
2022/07/06 04:53:42;;;;;;;;;;;21.50;92.40;;;;;;5035401;28;19908;-72
2022/07/06 04:56:08;;;;;;;;;;;21.50;91.70;;;;;;5035815;28;20341;-72
2022/07/06 04:58:33;;;;;;;;;;;21.70;91.40;;;;;;5034856;28;19912;-73
2022/07/06 05:00:59;;;;;;;;;;;21.80;90.90;;;;;;5015477;28;19909;-71
2022/07/06 05:03:24;;;;;;;;;;;21.90;90.70;;;;;;5015861;28;19910;-73
2022/07/06 05:05:50;;;;;;;;;;;22.10;90.00;;;;;;5015461;28;19999;-72
2022/07/06 05:08:15;;;;;;;;;;;22.20;88.70;;;;;;5019755;28;19909;-72
2022/07/06 05:10:41;;;;;;;;;;;22.40;86.70;;;;;;5034761;28;19913;-72
2022/07/06 05:13:06;;;;;;;;;;;22.60;85.40;;;;;;5034908;28;19920;-73
2022/07/06 05:15:32;;;;;;;;;;;22.80;83.40;;;;;;5032014;28;20341;-71
2022/07/06 05:17:57;;;;;;;;;;;22.90;79.70;;;;;;5035295;28;20000;-72
2022/07/06 05:20:23;;;;;;;;;;;23.10;78.50;;;;;;5035054;28;19909;-72
2022/07/06 05:22:48;;;;;;;;;;;23.40;77.50;;;;;;5035058;28;20315;-73
2022/07/06 05:25:14;;;;;;;;;;;23.50;75.10;;;;;;5035624;28;19912;-72
2022/07/06 05:27:39;;;;;;;;;;;23.70;74.30;;;;;;5035173;28;19956;-73
2022/07/06 05:30:05;;;;;;;;;;;23.90;73.70;;;;;;5035745;28;19928;-73
2022/07/06 05:32:31;;;;;;;;;;;24.20;72.90;;;;;;5035005;28;20023;-73
2022/07/06 05:34:56;;;;;;;;;;;24.40;72.20;;;;;;5035757;28;19905;-73
2022/07/06 05:37:22;;;;;;;;;;;24.60;71.10;;;;;;5034664;28;20000;-73
2022/07/06 05:39:49;;;;;;;;;;;24.80;70.50;;;;;;5035529;28;20353;-71
2022/07/06 05:42:14;;;;;;;;;;;25.00;69.40;;;;;;5035388;28;19905;-71
2022/07/06 05:44:40;;;;;;;;;;;25.20;68.70;;;;;;5034988;28;19927;-72
2022/07/06 05:52:34;;;;;;;;;;;25.80;65.20;;;;;;5034667;28;20023;-72
2022/07/06 05:54:59;;;;;;;;;;;26.00;64.20;;;;;;5035031;28;19905;-72
2022/07/06 05:57:25;;;;;;;;;;;26.30;63.70;;;;;;5034756;28;19905;-71
2022/07/06 05:59:51;;;;;;;;;;;26.40;62.30;;;;;;5034345;28;19975;-74
2022/07/06 06:02:17;;;;;;;;;;;26.40;61.70;;;;;;5034870;28;20254;-72
2022/07/06 06:04:42;;;;;;;;;;;26.40;62.00;;;;;;5016912;28;19913;-72
2022/07/06 06:07:08;;;;;;;;;;;26.60;61.60;;;;;;5034971;28;19909;-73
2022/07/06 06:09:33;;;;;;;;;;;26.90;62.00;;;;;;5034404;28;19905;-73
2022/07/06 06:11:59;;;;;;;;;;;27.30;60.40;;;;;;5034644;28;19909;-73
2022/07/06 06:14:24;;;;;;;;;;;27.70;59.40;;;;;;5034605;28;19912;-73
2022/07/06 06:16:50;;;;;;;;;;;28.10;58.70;;;;;;5016676;28;19962;-73
2022/07/06 06:19:15;;;;;;;;;;;28.70;57.40;;;;;;5034802;28;19913;-72
2022/07/06 06:21:41;;;;;;;;;;;29.30;56.70;;;;;;5034261;28;19905;-72
2022/07/06 06:24:07;;;;;;;;;;;29.80;55.20;;;;;;5034516;28;19912;-73
2022/07/06 06:26:32;;;;;;;;;;;30.20;54.10;;;;;;5033670;28;20289;-73
2022/07/06 06:28:58;;;;;;;;;;;30.10;52.40;;;;;;5034810;28;19917;-72
2022/07/06 06:31:23;;;;;;;;;;;29.10;53.00;;;;;;5034471;28;20321;-74
2022/07/06 06:33:49;;;;;;;;;;;28.30;54.30;;;;;;5033810;28;19916;-73
2022/07/06 06:36:14;;;;;;;;;;;27.70;55.50;;;;;;5034431;28;19905;-73
2022/07/06 06:38:40;;;;;;;;;;;27.30;56.80;;;;;;5033641;28;19959;-74
2022/07/06 06:41:05;;;;;;;;;;;27.10;58.10;;;;;;5034262;28;19951;-72
2022/07/06 06:43:31;;;;;;;;;;;27.00;57.70;;;;;;5034232;28;19951;-72
2022/07/06 06:45:57;;;;;;;;;;;28.00;57.10;;;;;;5033984;28;20306;-72
2022/07/06 06:48:22;;;;;;;;;;;28.70;55.20;;;;;;5033837;28;19917;-72
2022/07/06 06:50:48;;;;;;;;;;;29.40;52.90;;;;;;5033648;28;19913;-72
2022/07/06 06:53:13;;;;;;;;;;;29.70;51.70;;;;;;5034177;28;19967;-72
2022/07/06 06:55:39;;;;;;;;;;;30.40;51.40;;;;;;5033682;28;19970;-73
2022/07/06 06:58:04;;;;;;;;;;;31.00;49.90;;;;;;5033871;28;19967;-72
2022/07/06 07:00:30;;;;;;;;;;;31.30;48.80;;;;;;5033848;28;19905;-72
2022/07/06 07:02:55;;;;;;;;;;;31.40;49.00;;;;;;5033251;28;19944;-74
2022/07/06 07:05:21;;;;;;;;;;;31.30;48.20;;;;;;5033529;28;19905;-72
2022/07/06 07:07:46;;;;;;;;;;;31.20;47.40;;;;;;5033415;28;20380;-73
2022/07/06 07:10:12;;;;;;;;;;;31.00;46.30;;;;;;5033773;28;19912;-73
2022/07/06 07:12:44;;;;;;;;;;;30.90;46.70;;;;;;5033811;28;19912;-73
2022/07/06 07:15:10;;;;;;;;;;;31.10;47.70;;;;;;5033572;28;20023;-73
2022/07/06 07:17:36;;;;;;;;;;;31.30;47.70;;;;;;5033429;28;19967;-74
2022/07/06 07:20:01;;;;;;;;;;;31.70;47.60;;;;;;5033558;28;19905;-73
2022/07/06 07:22:27;;;;;;;;;;;32.00;46.20;;;;;;5033595;28;20319;-73
2022/07/06 07:24:52;;;;;;;;;;;32.60;46.10;;;;;;5033155;28;19987;-73
2022/07/06 07:27:18;;;;;;;;;;;33.10;44.90;;;;;;5033301;28;20012;-73
2022/07/06 07:29:43;;;;;;;;;;;33.50;43.40;;;;;;5033132;28;19913;-73
2022/07/06 07:32:09;;;;;;;;;;;33.70;43.30;;;;;;5033093;28;20409;-73
2022/07/06 07:34:34;;;;;;;;;;;33.90;42.70;;;;;;5033646;28;20003;-73
2022/07/06 07:37:00;;;;;;;;;;;34.10;41.60;;;;;;5032968;28;19905;-73
2022/07/06 07:39:25;;;;;;;;;;;34.50;42.20;;;;;;5033110;28;19909;-73
2022/07/06 07:41:51;;;;;;;;;;;34.70;42.30;;;;;;5033026;28;19905;-73
2022/07/06 07:44:16;;;;;;;;;;;34.70;40.70;;;;;;5033054;28;19905;-73
2022/07/06 07:46:42;;;;;;;;;;;34.80;40.80;;;;;;5032239;28;19905;-73
2022/07/06 07:49:08;;;;;;;;;;;33.80;41.40;;;;;;5033120;28;19921;-73
2022/07/06 07:51:33;;;;;;;;;;;32.80;42.60;;;;;;5033079;28;19909;-73
2022/07/06 07:53:59;;;;;;;;;;;32.80;43.60;;;;;;5032422;28;20361;-73
2022/07/06 07:56:24;;;;;;;;;;;32.40;44.00;;;;;;5033069;28;19905;-73
2022/07/06 07:58:50;;;;;;;;;;;32.50;44.10;;;;;;5032468;28;19912;-72
2022/07/06 08:01:15;;;;;;;;;;;32.10;44.90;;;;;;5031984;28;19913;-71
2022/07/06 08:03:41;;;;;;;;;;;31.80;45.00;;;;;;5032776;28;19905;-72
2022/07/06 08:06:07;;;;;;;;;;;31.60;45.10;;;;;;5033369;28;19909;-72
2022/07/06 08:08:32;;;;;;;;;;;31.00;46.20;;;;;;5032968;28;20317;-72
2022/07/06 08:10:57;;;;;;;;;;;30.60;46.80;;;;;;5032703;28;19916;-72
2022/07/06 08:13:23;;;;;;;;;;;30.20;47.50;;;;;;5033103;28;19905;-72
2022/07/06 08:15:48;;;;;;;;;;;29.70;48.60;;;;;;5032660;28;19912;-73
2022/07/06 08:18:14;;;;;;;;;;;29.50;49.10;;;;;;5032948;28;19912;-72
2022/07/06 08:20:39;;;;;;;;;;;29.60;49.60;;;;;;5015039;28;19992;-74
2022/07/06 08:23:05;;;;;;;;;;;29.50;49.40;;;;;;5032998;28;19905;-73
2022/07/06 08:25:31;;;;;;;;;;;29.40;49.20;;;;;;5033059;28;19905;-72
2022/07/06 08:27:56;;;;;;;;;;;29.30;49.40;;;;;;5032470;28;19940;-72
2022/07/06 08:30:22;;;;;;;;;;;29.20;49.30;;;;;;5033021;28;20021;-72
2022/07/06 08:32:48;;;;;;;;;;;29.20;49.40;;;;;;5032849;28;19949;-72
2022/07/06 08:35:13;;;;;;;;;;;29.10;49.00;;;;;;5032919;28;19996;-72
2022/07/06 08:37:39;;;;;;;;;;;29.10;49.00;;;;;;5032946;28;20423;-72
2022/07/06 08:40:05;;;;;;;;;;;29.10;49.70;;;;;;5032244;28;19940;-72
2022/07/06 08:42:32;;;;;;;;;;;29.00;49.40;;;;;;5032954;28;19905;-72
2022/07/06 08:45:01;;;;;;;;;;;28.90;49.90;;;;;;5032207;28;19905;-73
2022/07/06 08:47:27;;;;;;;;;;;28.90;49.10;;;;;;5032516;28;20357;-72
2022/07/06 08:49:53;;;;;;;;;;;28.80;49.50;;;;;;5032703;28;19912;-73
2022/07/06 08:52:19;;;;;;;;;;;28.80;50.20;;;;;;5032752;28;19909;-72
2022/07/06 08:54:45;;;;;;;;;;;28.70;50.00;;;;;;5032307;28;20349;-73
2022/07/06 08:57:10;;;;;;;;;;;28.60;51.50;;;;;;5032645;28;19905;-72
2022/07/06 08:59:36;;;;;;;;;;;28.50;50.50;;;;;;5032538;28;19905;-72
2022/07/06 09:02:03;;;;;;;;;;;28.50;51.00;;;;;;5032135;28;19905;-73
2022/07/06 09:04:29;;;;;;;;;;;28.30;51.40;;;;;;5032335;28;19975;-72
2022/07/06 09:06:55;;;;;;;;;;;28.30;51.80;;;;;;5032097;28;19909;-73
2022/07/06 09:09:22;;;;;;;;;;;28.30;51.70;;;;;;5032654;28;19913;-73
2022/07/06 09:11:48;;;;;;;;;;;28.30;52.50;;;;;;5032680;28;20320;-73
2022/07/06 09:14:14;;;;;;;;;;;28.20;51.50;;;;;;5036158;28;19906;-73
2022/07/06 09:16:39;;;;;;;;;;;28.10;51.60;;;;;;5035864;28;20276;-72
2022/07/06 09:19:05;;;;;;;;;;;28.00;52.00;;;;;;5035309;28;19905;-72
2022/07/06 09:21:32;;;;;;;;;;;28.00;52.70;;;;;;5036051;28;19905;-72
2022/07/06 09:23:59;;;;;;;;;;;27.80;51.60;;;;;;5035625;28;19909;-72
2022/07/06 09:26:24;;;;;;;;;;;27.60;51.50;;;;;;5035925;28;19912;-72
2022/07/06 09:28:50;;;;;;;;;;;27.40;52.00;;;;;;5035018;28;19917;-73
2022/07/06 09:31:15;;;;;;;;;;;27.30;52.60;;;;;;5035831;28;19912;-72
2022/07/06 09:34:09;;;;;;;;;;;27.20;53.20;;;;;;5036261;28;19905;-72
2022/07/06 09:36:45;;;;;;;;;;;27.10;53.50;;;;;;5035564;28;19905;-73
2022/07/06 09:39:18;;;;;;;;;;;27.10;54.20;;;;;;5035381;28;20269;-73
2022/07/06 09:41:44;;;;;;;;;;;27.20;54.20;;;;;;5035504;28;19905;-73
2022/07/06 09:44:11;;;;;;;;;;;27.20;53.80;;;;;;5035076;28;19999;-72
2022/07/06 09:46:40;;;;;;;;;;;27.20;53.90;;;;;;5035318;28;19905;-73
2022/07/06 09:49:06;;;;;;;;;;;27.10;53.70;;;;;;5034668;28;20142;-72
2022/07/06 09:51:35;;;;;;;;;;;27.10;54.40;;;;;;5034916;28;20269;-73
2022/07/06 09:54:03;;;;;;;;;;;27.10;54.90;;;;;;5034178;28;19906;-73
2022/07/06 09:56:38;;;;;;;;;;;27.10;55.40;;;;;;5035256;28;19955;-72
2022/07/06 09:59:11;;;;;;;;;;;27.10;54.70;;;;;;5017105;28;20325;-73
2022/07/06 10:01:40;;;;;;;;;;;27.10;54.80;;;;;;5035360;28;19905;-73
2022/07/06 10:04:06;;;;;;;;;;;27.00;55.20;;;;;;5034562;28;19905;-73
2022/07/06 10:06:32;;;;;;;;;;;27.00;53.80;;;;;;5034954;28;19940;-72
2022/07/06 10:08:58;;;;;;;;;;;27.00;51.80;;;;;;5034476;28;19967;-73
2022/07/06 10:11:24;;;;;;;;;;;27.10;52.20;;;;;;5035150;28;20282;-72
2022/07/06 10:13:50;;;;;;;;;;;27.10;51.70;;;;;;5034660;28;19951;-73
2022/07/06 10:16:15;;;;;;;;;;;27.10;52.70;;;;;;5035082;28;19948;-72
2022/07/06 10:18:41;;;;;;;;;;;27.00;50.20;;;;;;5031968;28;19906;-73
2022/07/06 10:21:07;;;;;;;;;;;27.00;51.20;;;;;;5033921;28;19959;-73
2022/07/06 10:23:34;;;;;;;;;;;27.00;51.20;;;;;;5034073;28;19905;-73
2022/07/06 10:26:00;;;;;;;;;;;26.90;51.50;;;;;;5034003;28;19912;-72
2022/07/06 10:28:26;;;;;;;;;;;26.90;52.00;;;;;;5034072;28;20383;-72
2022/07/06 10:30:52;;;;;;;;;;;26.80;52.30;;;;;;5034052;28;19905;-72
2022/07/06 10:33:18;;;;;;;;;;;26.80;52.70;;;;;;5034356;28;19905;-72
2022/07/06 10:35:44;;;;;;;;;;;26.80;52.30;;;;;;5033988;28;19912;-73
2022/07/06 10:38:10;;;;;;;;;;;26.70;50.60;;;;;;5033703;28;20313;-72
2022/07/06 10:43:20;;;;;;;;;;;26.60;50.90;;;;;;5034263;28;19928;-73
2022/07/06 10:45:46;;;;;;;;;;;26.50;50.70;;;;;;5034254;28;20349;-73
2022/07/06 10:48:11;;;;;;;;;;;26.40;50.70;;;;;;5033281;28;19913;-73
2022/07/06 10:50:37;;;;;;;;;;;26.40;51.00;;;;;;5034071;28;19905;-73
2022/07/06 10:53:09;;;;;;;;;;;26.20;51.60;;;;;;5033405;28;19911;-73
2022/07/06 10:55:36;;;;;;;;;;;26.10;52.10;;;;;;5034042;28;20008;-73
2022/07/06 10:58:01;;;;;;;;;;;26.00;55.10;;;;;;5033744;28;19955;-74
2022/07/06 11:00:48;;;;;;;;;;;25.90;56.70;;;;;;5033961;28;19905;-73
2022/07/06 11:03:32;;;;;;;;;;;25.40;55.40;;;;;;5033588;28;19912;-73
2022/07/06 11:05:59;;;;;;;;;;;25.00;58.20;;;;;;5033486;28;20011;-73
2022/07/06 11:08:42;;;;;;;;;;;24.60;59.70;;;;;;5033187;28;19920;-73
2022/07/06 11:11:21;;;;;;;;;;;24.20;60.50;;;;;;5032230;28;20376;-73
2022/07/06 11:13:48;;;;;;;;;;;23.80;61.30;;;;;;5033185;28;20380;-73
2022/07/06 11:16:14;;;;;;;;;;;23.50;62.50;;;;;;5033208;28;19984;-73
2022/07/06 11:18:40;;;;;;;;;;;23.20;62.70;;;;;;5033741;28;20348;-73
2022/07/06 11:21:19;;;;;;;;;;;23.00;62.90;;;;;;5033339;28;19909;-72
2022/07/06 11:23:46;;;;;;;;;;;22.80;63.10;;;;;;5033593;28;19905;-73
2022/07/06 11:26:12;;;;;;;;;;;22.60;62.40;;;;;;5033267;28;19905;-73
2022/07/06 11:28:38;;;;;;;;;;;22.50;62.90;;;;;;5033749;28;19921;-73
2022/07/06 11:31:03;;;;;;;;;;;22.50;63.40;;;;;;5032765;28;19988;-73
2022/07/06 11:33:29;;;;;;;;;;;22.50;63.40;;;;;;5033430;28;20000;-73
2022/07/06 11:36:14;;;;;;;;;;;22.50;63.70;;;;;;5032107;28;20349;-73
2022/07/06 11:38:40;;;;;;;;;;;22.60;63.10;;;;;;5033305;28;20008;-73
2022/07/06 11:41:06;;;;;;;;;;;22.70;63.50;;;;;;5032409;28;19948;-73
2022/07/06 11:43:31;;;;;;;;;;;22.90;64.30;;;;;;5033115;28;19944;-73
2022/07/06 11:45:57;;;;;;;;;;;23.00;63.50;;;;;;5033001;28;19970;-73
2022/07/06 11:48:22;;;;;;;;;;;23.20;63.00;;;;;;5033475;28;19917;-73
2022/07/06 11:51:00;;;;;;;;;;;23.30;63.80;;;;;;5033088;28;19909;-73
2022/07/06 11:53:26;;;;;;;;;;;23.40;63.50;;;;;;5033492;28;19905;-73
2022/07/06 11:55:52;;;;;;;;;;;23.50;64.30;;;;;;5033246;28;20273;-73
2022/07/06 11:58:22;;;;;;;;;;;23.60;64.10;;;;;;5032803;28;19912;-73
2022/07/06 12:01:07;;;;;;;;;;;23.70;63.80;;;;;;5032964;28;19905;-73
2022/07/06 12:03:32;;;;;;;;;;;23.70;63.60;;;;;;5032579;28;19951;-74
2022/07/06 12:05:58;;;;;;;;;;;23.80;64.10;;;;;;5032862;28;19913;-74
2022/07/06 12:08:24;;;;;;;;;;;24.00;64.50;;;;;;5032909;28;20004;-74
2022/07/06 12:10:49;;;;;;;;;;;24.00;64.80;;;;;;5032860;28;19905;-74
2022/07/06 12:13:15;;;;;;;;;;;24.10;64.80;;;;;;5032463;28;20352;-74
2022/07/06 12:15:40;;;;;;;;;;;24.20;64.60;;;;;;5032821;28;19994;-74
2022/07/06 12:18:06;;;;;;;;;;;24.30;62.50;;;;;;5032617;28;19991;-74
2022/07/06 12:20:31;;;;;;;;;;;24.40;62.40;;;;;;5032767;28;19999;-74
2022/07/06 12:23:06;;;;;;;;;;;24.40;62.40;;;;;;5033242;28;19911;-73
2022/07/06 12:25:32;;;;;;;;;;;24.50;62.10;;;;;;5033006;28;19906;-74
2022/07/06 12:27:58;;;;;;;;;;;24.60;61.90;;;;;;5032522;28;20258;-73
2022/07/06 12:30:23;;;;;;;;;;;24.70;61.60;;;;;;5032920;28;19913;-74
2022/07/06 12:33:08;;;;;;;;;;;24.80;61.00;;;;;;5033020;28;19911;-74
2022/07/06 12:35:33;;;;;;;;;;;24.80;61.20;;;;;;5033071;28;19912;-74
2022/07/06 12:38:00;;;;;;;;;;;24.90;62.00;;;;;;5032956;28;19905;-74
2022/07/06 12:40:27;;;;;;;;;;;25.00;60.50;;;;;;5032970;28;19905;-74
2022/07/06 12:42:53;;;;;;;;;;;25.10;57.10;;;;;;5032829;28;19905;-74
2022/07/06 12:45:19;;;;;;;;;;;25.10;54.10;;;;;;5032527;28;19955;-74
2022/07/06 12:47:59;;;;;;;;;;;25.10;53.50;;;;;;5036463;28;19939;-73
2022/07/06 12:50:51;;;;;;;;;;;25.20;53.40;;;;;;5036116;28;20344;-74
2022/07/06 12:53:26;;;;;;;;;;;25.30;52.60;;;;;;5032763;28;20283;-74
2022/07/06 12:56:10;;;;;;;;;;;25.40;51.50;;;;;;5036813;28;20007;-72
2022/07/06 12:58:36;;;;;;;;;;;25.40;53.00;;;;;;5036169;28;20004;-72
2022/07/06 13:01:01;;;;;;;;;;;25.50;54.50;;;;;;5036191;28;19975;-73
2022/07/06 13:03:27;;;;;;;;;;;25.50;54.40;;;;;;5018946;28;19911;-73
2022/07/06 13:05:52;;;;;;;;;;;25.70;54.70;;;;;;5036062;28;19956;-73
2022/07/06 13:08:18;;;;;;;;;;;25.70;54.20;;;;;;5035581;28;19917;-73
2022/07/06 13:10:45;;;;;;;;;;;25.80;53.00;;;;;;5036291;28;19911;-74
2022/07/06 13:13:10;;;;;;;;;;;25.90;52.80;;;;;;5035786;28;19909;-73
2022/07/06 13:15:35;;;;;;;;;;;25.90;52.20;;;;;;5036242;28;19913;-74
2022/07/06 13:18:01;;;;;;;;;;;25.90;51.70;;;;;;5035734;28;19905;-72
2022/07/06 13:20:28;;;;;;;;;;;26.00;50.80;;;;;;5035662;28;19905;-72
2022/07/06 13:22:53;;;;;;;;;;;26.00;50.40;;;;;;5036307;28;19905;-72
2022/07/06 13:25:19;;;;;;;;;;;26.00;48.10;;;;;;5035616;28;19915;-73
2022/07/06 13:27:44;;;;;;;;;;;26.00;48.30;;;;;;5035615;28;19995;-73
2022/07/06 13:30:10;;;;;;;;;;;26.00;49.00;;;;;;5035257;28;20349;-73
2022/07/06 13:32:36;;;;;;;;;;;26.00;48.40;;;;;;5035750;28;19905;-72
2022/07/06 13:35:01;;;;;;;;;;;26.00;47.10;;;;;;5035777;28;19951;-73
2022/07/06 13:37:27;;;;;;;;;;;26.00;47.30;;;;;;5034519;28;19905;-73
2022/07/06 13:39:52;;;;;;;;;;;25.90;46.90;;;;;;5035655;28;19912;-72
2022/07/06 13:42:18;;;;;;;;;;;25.90;47.10;;;;;;5035008;28;19909;-74
2022/07/06 13:44:43;;;;;;;;;;;25.90;47.40;;;;;;5035614;28;19912;-73
2022/07/06 13:47:09;;;;;;;;;;;26.00;47.20;;;;;;5035123;28;19905;-73
2022/07/06 13:49:35;;;;;;;;;;;25.90;46.80;;;;;;5035093;28;19975;-73
2022/07/06 13:52:03;;;;;;;;;;;25.90;49.30;;;;;;5035452;28;19905;-73
2022/07/06 13:54:29;;;;;;;;;;;25.80;51.10;;;;;;5034914;28;19932;-73
2022/07/06 13:56:55;;;;;;;;;;;25.70;51.10;;;;;;5035221;28;19905;-73
2022/07/06 13:59:20;;;;;;;;;;;25.60;51.30;;;;;;5034168;28;20375;-73
2022/07/06 14:01:46;;;;;;;;;;;25.40;49.70;;;;;;5034813;28;20375;-73
2022/07/06 14:04:11;;;;;;;;;;;25.30;49.70;;;;;;5034740;28;19904;-73
2022/07/06 14:06:36;;;;;;;;;;;25.20;50.00;;;;;;5035199;28;19905;-73
2022/07/06 14:09:02;;;;;;;;;;;25.10;50.70;;;;;;5035185;28;20341;-73
2022/07/06 14:11:28;;;;;;;;;;;25.00;51.00;;;;;;5034682;28;20391;-73
2022/07/06 14:13:53;;;;;;;;;;;25.00;51.20;;;;;;5034845;28;19927;-73
2022/07/06 14:16:19;;;;;;;;;;;24.90;51.10;;;;;;5034901;28;19905;-73
2022/07/06 14:18:44;;;;;;;;;;;24.90;51.70;;;;;;5035091;28;19905;-73
2022/07/06 14:21:10;;;;;;;;;;;24.80;52.10;;;;;;5034457;28;19911;-73